Time;durP1;ratioP1;P1;durP2;ratioP2;P2;SDS_P1;SDS_P2;PMS_P1;PMS_P2;Temp;Humidity;BMP_temperature;BMP_pressure;BME280_temperature;BME280_humidity;BME280_pressure;Samples;Min_cycle;Max_cycle;Signal;HPM_P1;HPM_P2
2020/12/29 00:00:37;;;;;;;10.38;7.63;;;3.70;99.90;;;;;;5053047;28;20029;-74
2020/12/29 00:03:03;;;;;;;13.27;10.07;;;3.60;99.90;;;;;;5050383;28;20039;-74
2020/12/29 00:05:28;;;;;;;12.75;9.50;;;3.60;99.90;;;;;;5041702;28;20022;-74
2020/12/29 00:07:54;;;;;;;11.98;9.32;;;3.60;99.90;;;;;;5046088;28;20033;-73
2020/12/29 00:10:23;;;;;;;12.52;9.35;;;3.60;99.90;;;;;;5050642;28;20371;-75
2020/12/29 00:12:52;;;;;;;13.65;9.95;;;3.60;99.90;;;;;;5046253;28;20033;-74
2020/12/29 00:15:18;;;;;;;14.00;9.48;;;3.60;99.90;;;;;;5046884;28;20408;-74
2020/12/29 00:17:43;;;;;;;11.60;9.30;;;3.60;99.90;;;;;;5043521;28;20029;-74
2020/12/29 00:20:10;;;;;;;13.63;8.95;;;3.50;99.90;;;;;;5048337;28;20033;-74
2020/12/29 00:22:36;;;;;;;14.48;10.23;;;3.40;99.90;;;;;;5044661;28;20056;-75
2020/12/29 00:25:04;;;;;;;13.75;9.98;;;3.40;99.90;;;;;;5049147;28;20021;-76
2020/12/29 00:27:29;;;;;;;13.38;9.75;;;3.40;99.90;;;;;;5048289;28;20405;-75
2020/12/29 00:29:55;;;;;;;16.48;11.07;;;3.40;99.90;;;;;;5046169;28;20029;-75
2020/12/29 00:32:21;;;;;;;16.40;10.88;;;3.40;99.90;;;;;;5047776;28;20017;-75
2020/12/29 00:34:47;;;;;;;14.10;9.77;;;3.30;99.90;;;;;;5050950;28;20025;-74
2020/12/29 00:37:14;;;;;;;14.52;10.55;;;3.30;99.90;;;;;;5045976;28;20082;-73
2020/12/29 00:39:40;;;;;;;15.90;10.73;;;3.30;99.90;;;;;;5043639;28;20024;-74
2020/12/29 00:42:06;;;;;;;15.77;10.68;;;3.30;99.90;;;;;;5044959;28;20032;-74
2020/12/29 00:44:32;;;;;;;17.55;10.70;;;3.20;99.90;;;;;;5044739;28;20029;-75
2020/12/29 00:46:58;;;;;;;13.88;10.43;;;3.10;99.90;;;;;;5039246;28;20044;-75
2020/12/29 00:49:23;;;;;;;16.45;10.65;;;3.20;99.90;;;;;;5048980;28;20049;-75
2020/12/29 00:51:51;;;;;;;20.60;11.73;;;3.20;99.90;;;;;;5042481;28;20021;-75
2020/12/29 00:54:16;;;;;;;18.52;12.00;;;3.20;99.90;;;;;;5047587;28;20362;-74
2020/12/29 00:56:42;;;;;;;17.25;11.35;;;3.10;99.90;;;;;;5038261;28;20028;-75
2020/12/29 00:59:08;;;;;;;12.43;9.57;;;3.10;99.90;;;;;;5043639;28;20474;-74
2020/12/29 01:01:33;;;;;;;15.20;10.70;;;3.10;99.90;;;;;;5045876;28;20029;-74
2020/12/29 01:03:59;;;;;;;24.77;13.93;;;3.00;99.90;;;;;;5059358;28;20561;-75
2020/12/29 01:06:28;;;;;;;19.58;12.18;;;3.10;99.90;;;;;;5049133;28;20036;-74
2020/12/29 01:08:54;;;;;;;19.23;12.90;;;3.10;99.90;;;;;;5043133;28;20520;-74
2020/12/29 01:11:19;;;;;;;16.10;10.93;;;3.10;99.90;;;;;;5047380;28;20049;-75
2020/12/29 01:13:45;;;;;;;16.23;11.57;;;3.20;99.90;;;;;;5046830;28;20078;-75
2020/12/29 01:16:12;;;;;;;18.05;12.65;;;3.20;99.90;;;;;;5046227;28;20104;-74
2020/12/29 01:18:38;;;;;;;18.58;14.13;;;3.20;99.90;;;;;;5048555;28;20029;-74
2020/12/29 01:21:09;;;;;;;23.65;14.80;;;3.10;99.90;;;;;;5046953;28;20029;-74
2020/12/29 01:23:35;;;;;;;21.67;15.07;;;3.10;99.90;;;;;;5051338;28;20083;-74
2020/12/29 01:26:01;;;;;;;21.92;14.10;;;3.10;99.90;;;;;;5043854;28;20025;-74
2020/12/29 01:28:26;;;;;;;18.30;14.35;;;3.20;99.90;;;;;;5051657;28;20037;-74
2020/12/29 01:30:52;;;;;;;19.15;11.88;;;3.30;99.90;;;;;;5051304;28;20358;-74
2020/12/29 01:33:18;;;;;;;19.83;13.77;;;3.30;99.90;;;;;;5053453;28;20025;-74
2020/12/29 01:35:44;;;;;;;17.80;13.40;;;3.40;99.90;;;;;;5050228;28;20018;-74
2020/12/29 01:38:09;;;;;;;18.13;13.00;;;3.40;99.90;;;;;;5053230;28;20025;-74
2020/12/29 01:40:35;;;;;;;19.73;13.98;;;3.40;99.90;;;;;;5049046;28;20029;-74
2020/12/29 01:43:02;;;;;;;20.70;14.93;;;3.50;99.90;;;;;;5049617;28;20017;-74
2020/12/29 01:45:27;;;;;;;18.48;13.75;;;3.40;99.90;;;;;;5040030;28;20436;-74
2020/12/29 01:47:54;;;;;;;24.40;15.52;;;3.50;99.90;;;;;;5041318;28;20041;-74
2020/12/29 01:50:25;;;;;;;19.30;13.40;;;3.40;99.90;;;;;;5045169;28;20056;-75
2020/12/29 01:53:02;;;;;;;19.75;13.30;;;3.50;99.90;;;;;;5042420;28;20067;-75
2020/12/29 01:55:29;;;;;;;25.58;15.15;;;3.50;99.90;;;;;;5047805;28;20030;-75
2020/12/29 01:57:58;;;;;;;17.50;13.05;;;3.60;99.90;;;;;;5053440;28;20052;-75
2020/12/29 02:00:24;;;;;;;19.88;13.32;;;3.60;99.90;;;;;;5049980;28;20112;-75
2020/12/29 02:02:50;;;;;;;22.50;13.90;;;3.60;99.90;;;;;;5052377;28;20104;-75
2020/12/29 02:05:15;;;;;;;18.08;11.80;;;3.60;99.90;;;;;;5049641;28;20047;-74
2020/12/29 02:07:42;;;;;;;16.45;12.57;;;3.50;99.90;;;;;;5049575;28;20033;-75
2020/12/29 02:10:08;;;;;;;19.55;14.18;;;3.50;99.90;;;;;;5052461;28;20017;-74
2020/12/29 02:12:36;;;;;;;25.20;15.35;;;3.50;99.90;;;;;;5051250;28;20539;-75
2020/12/29 02:15:08;;;;;;;18.35;13.43;;;3.50;99.90;;;;;;5047779;28;20029;-75
2020/12/29 02:17:34;;;;;;;;;;;3.60;99.90;;;;;;5045600;28;20033;-75
2020/12/29 02:20:00;;;;;;;19.25;13.80;;;3.50;99.90;;;;;;5055076;28;19904;-74
2020/12/29 02:22:27;;;;;;;19.20;13.60;;;3.70;99.90;;;;;;5051966;28;20083;-74
2020/12/29 02:25:01;;;;;;;22.10;15.45;;;3.70;99.90;;;;;;5052103;28;20025;-75
2020/12/29 02:27:30;;;;;;;17.95;13.35;;;3.80;99.90;;;;;;5044094;28;20018;-74
2020/12/29 02:29:56;;;;;;;23.00;14.77;;;3.80;99.90;;;;;;5051446;28;20493;-74
2020/12/29 02:32:23;;;;;;;23.65;15.82;;;3.70;99.90;;;;;;5040126;28;20036;-74
2020/12/29 02:34:49;;;;;;;23.33;16.08;;;3.70;99.90;;;;;;5054695;28;20477;-74
2020/12/29 02:37:16;;;;;;;22.70;15.48;;;3.70;99.90;;;;;;5052800;28;20060;-74
2020/12/29 02:39:44;;;;;;;28.75;17.77;;;3.70;99.90;;;;;;5047462;28;20075;-73
2020/12/29 02:42:10;;;;;;;24.80;16.92;;;3.70;99.90;;;;;;5046481;28;20064;-74
2020/12/29 02:44:37;;;;;;;21.95;15.48;;;3.70;99.90;;;;;;5047553;28;20041;-74
2020/12/29 02:47:04;;;;;;;26.83;16.65;;;3.80;99.90;;;;;;5044516;28;20021;-75
2020/12/29 02:49:32;;;;;;;17.92;13.18;;;3.80;99.90;;;;;;5045788;28;20493;-73
2020/12/29 02:51:58;;;;;;;22.73;15.13;;;3.80;99.90;;;;;;5048078;28;20021;-75
2020/12/29 02:54:24;;;;;;;25.45;17.02;;;3.90;99.90;;;;;;5051832;28;20787;-75
2020/12/29 02:56:50;;;;;;;25.15;17.45;;;3.80;99.90;;;;;;5046587;28;20090;-75
2020/12/29 02:59:16;;;;;;;26.13;18.23;;;3.80;99.90;;;;;;5047893;28;20021;-75
2020/12/29 03:01:42;;;;;;;23.33;16.25;;;3.80;99.90;;;;;;5053960;28;20029;-75
2020/12/29 03:04:07;;;;;;;25.27;17.73;;;3.80;99.90;;;;;;5042857;28;20025;-74
2020/12/29 03:06:33;;;;;;;21.58;16.30;;;3.90;99.90;;;;;;5048941;28;20070;-75
2020/12/29 03:08:59;;;;;;;27.83;17.27;;;3.90;99.90;;;;;;5045567;28;20163;-73
2020/12/29 03:11:29;;;;;;;26.52;16.70;;;3.90;99.90;;;;;;5050705;28;20106;-75
2020/12/29 03:13:56;;;;;;;24.15;16.83;;;3.90;99.90;;;;;;5046752;28;20036;-75
2020/12/29 03:16:22;;;;;;;27.48;17.98;;;3.90;99.90;;;;;;5047133;28;20476;-76
2020/12/29 03:18:48;;;;;;;26.08;17.30;;;3.90;99.90;;;;;;5047977;28;20102;-75
2020/12/29 03:21:14;;;;;;;28.90;17.88;;;3.90;99.90;;;;;;5050022;28;20052;-74
2020/12/29 03:23:39;;;;;;;21.02;15.88;;;4.00;99.90;;;;;;5052338;28;20469;-75
2020/12/29 03:26:05;;;;;;;25.80;16.20;;;3.90;99.90;;;;;;5044684;28;20115;-75
2020/12/29 03:28:31;;;;;;;23.83;16.73;;;3.90;99.90;;;;;;5047671;28;20042;-74
2020/12/29 03:30:57;;;;;;;27.73;18.50;;;3.90;99.90;;;;;;5050746;28;20473;-75
2020/12/29 03:33:22;;;;;;;25.50;17.67;;;3.90;99.90;;;;;;5049492;28;20068;-75
2020/12/29 03:35:48;;;;;;;32.10;20.63;;;4.00;99.90;;;;;;5051308;28;20375;-75
2020/12/29 03:38:13;;;;;;;31.70;21.02;;;4.00;99.90;;;;;;5052060;28;20053;-74
2020/12/29 03:40:39;;;;;;;35.35;19.98;;;4.00;99.90;;;;;;5049026;28;20025;-75
2020/12/29 03:43:04;;;;;;;31.65;19.63;;;4.00;99.90;;;;;;5047414;28;20029;-75
2020/12/29 03:45:30;;;;;;;31.55;22.85;;;4.00;99.90;;;;;;5045545;28;20025;-75
2020/12/29 03:47:56;;;;;;;35.70;22.13;;;4.00;99.90;;;;;;5041209;28;20029;-74
2020/12/29 03:50:21;;;;;;;33.40;20.10;;;4.00;99.90;;;;;;5051519;28;20104;-74
2020/12/29 03:52:47;;;;;;;29.33;20.75;;;3.90;99.90;;;;;;5046174;28;20108;-74
2020/12/29 03:55:13;;;;;;;29.67;20.10;;;3.90;99.90;;;;;;5042991;28;20033;-75
2020/12/29 03:57:39;;;;;;;26.77;18.48;;;4.00;99.90;;;;;;5041213;28;20048;-75
2020/12/29 04:00:08;;;;;;;25.35;17.33;;;3.90;99.90;;;;;;5049199;28;20410;-74
2020/12/29 04:02:34;;;;;;;28.50;16.70;;;4.00;99.90;;;;;;5047970;28;20028;-75
2020/12/29 04:05:00;;;;;;;22.15;14.13;;;4.00;99.90;;;;;;5048582;28;20020;-75
2020/12/29 04:07:25;;;;;;;23.35;16.05;;;4.00;99.90;;;;;;5046123;28;20448;-74
2020/12/29 04:09:51;;;;;;;29.10;17.92;;;4.00;99.90;;;;;;5050978;28;20040;-75
2020/12/29 04:12:17;;;;;;;26.15;17.65;;;3.90;99.90;;;;;;5045967;28;20035;-75
2020/12/29 04:14:42;;;;;;;27.52;17.75;;;3.90;99.90;;;;;;5047151;28;20087;-76
2020/12/29 04:17:08;;;;;;;24.25;16.13;;;3.80;99.90;;;;;;5048195;28;20070;-75
2020/12/29 04:19:34;;;;;;;22.95;16.30;;;3.70;99.90;;;;;;5042478;28;20108;-75
2020/12/29 04:21:59;;;;;;;20.63;15.48;;;3.70;99.90;;;;;;5048151;28;20071;-75
2020/12/29 04:24:25;;;;;;;22.70;15.38;;;3.80;99.90;;;;;;5050369;28;20056;-75
2020/12/29 04:26:50;;;;;;;24.40;15.65;;;3.80;99.90;;;;;;5040166;28;20032;-75
2020/12/29 04:29:16;;;;;;;23.98;15.35;;;3.80;99.90;;;;;;5038928;28;20029;-75
2020/12/29 04:31:42;;;;;;;21.27;14.93;;;3.60;99.90;;;;;;5046887;28;20032;-74
2020/12/29 04:34:08;;;;;;;25.77;15.93;;;3.60;99.90;;;;;;5051032;28;20381;-75
2020/12/29 04:36:33;;;;;;;22.23;14.57;;;3.60;99.90;;;;;;5048063;28;20070;-74
2020/12/29 04:38:59;;;;;;;25.35;15.27;;;3.60;99.90;;;;;;5047383;28;20026;-75
2020/12/29 04:41:25;;;;;;;23.45;14.35;;;3.60;99.90;;;;;;5048473;28;20033;-75
2020/12/29 04:43:55;;;;;;;20.60;14.20;;;3.50;99.90;;;;;;5049392;28;20432;-74
2020/12/29 04:46:21;;;;;;;21.25;14.15;;;3.50;99.90;;;;;;5036675;28;20021;-75
2020/12/29 04:48:46;;;;;;;24.77;13.68;;;3.50;99.90;;;;;;5047593;28;20033;-75
2020/12/29 04:51:16;;;;;;;22.23;14.30;;;3.50;99.90;;;;;;5037381;28;20021;-75
2020/12/29 04:53:57;;;;;;;21.70;14.98;;;3.50;99.90;;;;;;5044851;28;20032;-74
2020/12/29 04:56:32;;;;;;;20.17;14.70;;;3.40;99.90;;;;;;5045043;28;20025;-75
2020/12/29 04:59:02;;;;;;;25.55;16.38;;;3.40;99.90;;;;;;5048574;28;20040;-74
2020/12/29 05:01:32;;;;;;;24.85;15.48;;;3.40;99.90;;;;;;5049047;28;20365;-72
2020/12/29 05:03:58;;;;;;;25.33;15.05;;;3.50;99.90;;;;;;5042963;28;20068;-73
2020/12/29 05:06:24;;;;;;;23.90;14.13;;;3.40;99.90;;;;;;5050199;28;20045;-73
2020/12/29 05:08:52;;;;;;;20.35;13.13;;;3.40;99.90;;;;;;5045836;28;20473;-74
2020/12/29 05:11:18;;;;;;;24.85;13.77;;;3.40;99.90;;;;;;5043567;28;20031;-72
2020/12/29 05:13:45;;;;;;;19.95;14.60;;;3.30;99.90;;;;;;5045286;28;20044;-74
2020/12/29 05:16:11;;;;;;;22.83;12.45;;;3.40;99.90;;;;;;5049642;28;20021;-73
2020/12/29 05:18:37;;;;;;;23.35;14.95;;;3.40;99.90;;;;;;5045048;28;20428;-73
2020/12/29 05:21:03;;;;;;;22.58;13.32;;;3.30;99.90;;;;;;5051195;28;20026;-73
2020/12/29 05:23:29;;;;;;;21.83;14.40;;;3.20;99.90;;;;;;5043881;28;20053;-74
2020/12/29 05:25:55;;;;;;;18.23;12.88;;;3.20;99.90;;;;;;5044929;28;20055;-74
2020/12/29 05:28:26;;;;;;;25.10;14.50;;;3.20;99.90;;;;;;5048138;28;20048;-73
2020/12/29 05:30:54;;;;;;;22.95;13.90;;;3.20;99.90;;;;;;5047722;28;20029;-73
2020/12/29 05:33:19;;;;;;;20.20;12.98;;;3.20;99.90;;;;;;5048407;28;20029;-74
2020/12/29 05:35:45;;;;;;;19.63;12.68;;;3.20;99.90;;;;;;5046069;28;20030;-73
2020/12/29 05:38:11;;;;;;;25.27;13.85;;;3.20;99.90;;;;;;5049161;28;20416;-73
2020/12/29 05:40:37;;;;;;;21.67;12.98;;;3.20;99.90;;;;;;5046346;28;20033;-72
2020/12/29 05:43:03;;;;;;;20.20;12.98;;;3.20;99.90;;;;;;5045449;28;20485;-73
2020/12/29 05:45:31;;;;;;;21.95;13.68;;;3.20;99.90;;;;;;5037177;28;20030;-73
2020/12/29 05:47:58;;;;;;;25.15;12.85;;;3.10;99.90;;;;;;5038363;28;20033;-74
2020/12/29 05:50:25;;;;;;;22.73;13.80;;;3.10;99.90;;;;;;5040926;28;20038;-73
2020/12/29 05:52:53;;;;;;;24.92;14.43;;;3.20;99.90;;;;;;5045958;28;20075;-73
2020/12/29 05:55:21;;;;;;;23.02;13.50;;;3.10;99.90;;;;;;5044451;28;20028;-72
2020/12/29 05:58:07;;;;;;;20.05;12.73;;;3.10;99.90;;;;;;5047185;28;20020;-73
2020/12/29 06:00:40;;;;;;;27.35;14.57;;;3.10;99.90;;;;;;5046101;28;20030;-73
2020/12/29 06:03:08;;;;;;;22.40;13.52;;;3.10;99.90;;;;;;5044034;28;20013;-72
2020/12/29 06:05:36;;;;;;;24.23;14.48;;;3.20;99.90;;;;;;5049350;28;20100;-72
2020/12/29 06:08:06;;;;;;;27.35;14.88;;;3.20;99.90;;;;;;5059073;28;20028;-73
2020/12/29 06:10:34;;;;;;;23.08;15.60;;;3.20;99.90;;;;;;5047268;28;20029;-73
2020/12/29 06:13:05;;;;;;;26.92;16.70;;;3.20;99.90;;;;;;5042862;28;20734;-73
2020/12/29 06:15:38;;;;;;;29.98;15.70;;;3.30;99.90;;;;;;5040825;28;20363;-73
2020/12/29 06:18:05;;;;;;;27.08;15.88;;;3.30;99.90;;;;;;5045983;28;20078;-73
2020/12/29 06:20:47;;;;;;;33.70;17.75;;;3.30;99.90;;;;;;5050212;28;20029;-73
2020/12/29 06:23:18;;;;;;;29.10;16.53;;;3.40;99.90;;;;;;5051975;28;20095;-73
2020/12/29 06:25:45;;;;;;;28.02;17.48;;;3.40;99.90;;;;;;5042770;28;20450;-73
2020/12/29 06:28:14;;;;;;;29.30;19.40;;;3.50;99.90;;;;;;5048477;28;20523;-73
2020/12/29 06:30:41;;;;;;;33.90;20.48;;;3.50;99.90;;;;;;5047009;28;20041;-73
2020/12/29 06:33:07;;;;;;;29.42;19.90;;;3.50;99.90;;;;;;5048924;28;20052;-73
2020/12/29 06:35:33;;;;;;;33.92;18.50;;;3.50;99.90;;;;;;5054648;28;20091;-73
2020/12/29 06:38:06;;;;;;;31.08;19.48;;;3.60;99.90;;;;;;5051101;28;20462;-73
2020/12/29 06:40:32;;;;;;;34.28;20.00;;;3.60;99.90;;;;;;5049609;28;20490;-73
2020/12/29 06:42:58;;;;;;;34.50;19.00;;;3.60;99.90;;;;;;5049732;28;20034;-74
2020/12/29 06:45:24;;;;;;;36.13;19.98;;;3.60;99.90;;;;;;5048022;28;20037;-73
2020/12/29 06:47:51;;;;;;;36.90;19.50;;;3.60;99.90;;;;;;5040457;28;20034;-73
2020/12/29 06:50:24;;;;;;;28.92;18.55;;;3.70;99.90;;;;;;5045502;28;20482;-73
2020/12/29 06:52:57;;;;;;;31.33;19.40;;;3.70;99.90;;;;;;5041354;28;21039;-72
2020/12/29 06:55:26;;;;;;;36.88;20.73;;;3.70;99.90;;;;;;5049111;28;20029;-73
2020/12/29 06:57:52;;;;;;;34.60;19.55;;;3.70;99.90;;;;;;5048423;28;20066;-74
2020/12/29 07:00:19;;;;;;;34.05;20.98;;;3.70;99.90;;;;;;5047710;28;20029;-73
2020/12/29 07:02:47;;;;;;;31.10;20.08;;;3.70;99.90;;;;;;5045568;28;20017;-73
2020/12/29 07:05:17;;;;;;;31.58;20.38;;;3.70;99.90;;;;;;5047488;28;20029;-73
2020/12/29 07:07:53;;;;;;;32.17;20.42;;;3.80;99.90;;;;;;5045167;28;20060;-74
2020/12/29 07:10:19;;;;;;;31.67;19.27;;;3.80;99.90;;;;;;5050777;28;20041;-73
2020/12/29 07:12:49;;;;;;;35.50;20.55;;;3.90;99.90;;;;;;5047496;28;20029;-74
2020/12/29 07:15:16;;;;;;;29.30;18.48;;;3.80;99.90;;;;;;5047766;28;20021;-74
2020/12/29 07:17:57;;;;;;;39.63;20.23;;;3.80;99.90;;;;;;5042070;28;20494;-74
2020/12/29 07:20:25;;;;;;;33.95;21.23;;;3.80;99.90;;;;;;5040859;28;20032;-73
2020/12/29 07:22:58;;;;;;;39.38;20.98;;;3.80;99.90;;;;;;5039393;28;20113;-74
2020/12/29 07:25:25;;;;;;;41.13;21.52;;;3.80;99.90;;;;;;5043148;28;20033;-74
2020/12/29 07:27:54;;;;;;;31.23;19.00;;;3.80;99.90;;;;;;5051001;28;20104;-74
2020/12/29 07:30:20;;;;;;;36.92;23.50;;;3.80;99.90;;;;;;5049826;28;20102;-74
2020/12/29 07:32:46;;;;;;;36.63;21.90;;;3.80;99.90;;;;;;5043158;28;20084;-74
2020/12/29 07:35:12;;;;;;;38.72;22.38;;;3.80;99.90;;;;;;5041573;28;20026;-74
2020/12/29 07:37:40;;;;;;;40.58;23.23;;;3.80;99.90;;;;;;5047194;28;20060;-74
2020/12/29 07:40:07;;;;;;;44.75;22.50;;;3.80;99.90;;;;;;5046164;28;20028;-74
2020/12/29 07:42:33;;;;;;;38.17;22.35;;;3.80;99.90;;;;;;5049384;28;20480;-72
2020/12/29 07:44:59;;;;;;;46.65;26.80;;;3.80;99.90;;;;;;5048102;28;20029;-73
2020/12/29 07:47:25;;;;;;;58.30;29.80;;;3.80;99.90;;;;;;5050039;28;20040;-73
2020/12/29 07:49:51;;;;;;;47.28;25.55;;;3.80;99.90;;;;;;5041045;28;20486;-73
2020/12/29 07:52:23;;;;;;;44.35;26.35;;;3.80;99.90;;;;;;5042764;28;20031;-72
2020/12/29 07:55:08;;;;;;;43.25;26.08;;;3.80;99.90;;;;;;5040675;28;20025;-73
2020/12/29 07:57:34;;;;;;;52.63;35.47;;;3.80;99.90;;;;;;5041166;28;20072;-75
2020/12/29 08:00:06;;;;;;;45.30;26.85;;;3.90;99.90;;;;;;5046193;28;20037;-73
2020/12/29 08:02:32;;;;;;;41.17;26.05;;;3.90;99.90;;;;;;5037164;28;20120;-73
2020/12/29 08:05:00;;;;;;;46.70;26.92;;;3.80;99.90;;;;;;5043378;28;20541;-73
2020/12/29 08:07:26;;;;;;;49.50;28.97;;;3.80;99.90;;;;;;5042465;28;20065;-73
2020/12/29 08:09:52;;;;;;;43.00;26.67;;;3.80;99.90;;;;;;5047207;28;20095;-73
2020/12/29 08:12:18;;;;;;;49.80;24.98;;;3.80;99.90;;;;;;5040101;28;20029;-73
2020/12/29 08:14:43;;;;;;;45.20;25.38;;;3.80;99.90;;;;;;5039670;28;20501;-74
2020/12/29 08:17:10;;;;;;;51.55;29.15;;;3.80;99.90;;;;;;5041331;28;20055;-74
2020/12/29 08:19:36;;;;;;;41.35;24.60;;;3.80;99.90;;;;;;5038645;28;20473;-73
2020/12/29 08:22:09;;;;;;;46.45;26.23;;;3.80;99.90;;;;;;5043701;28;20043;-73
2020/12/29 08:24:35;;;;;;;48.20;28.05;;;3.90;99.90;;;;;;5048398;28;20044;-74
2020/12/29 08:27:00;;;;;;;49.20;27.67;;;3.90;99.90;;;;;;5040863;28;20478;-75
2020/12/29 08:29:27;;;;;;;48.28;26.88;;;3.90;99.90;;;;;;5042274;28;20052;-73
2020/12/29 08:32:10;;;;;;;53.05;29.98;;;3.90;99.90;;;;;;5043744;28;20474;-73
2020/12/29 08:34:40;;;;;;;49.28;31.50;;;4.10;99.90;;;;;;5044099;28;20142;-73
2020/12/29 08:37:07;;;;;;;51.15;30.17;;;4.00;99.90;;;;;;5046862;28;20025;-72
2020/12/29 08:40:02;;;;;;;50.67;31.08;;;4.10;99.90;;;;;;5047822;28;20029;-73
2020/12/29 08:42:33;;;;;;;60.45;32.53;;;4.00;99.90;;;;;;5044244;28;20033;-72
2020/12/29 08:44:59;;;;;;;49.67;28.83;;;4.10;99.90;;;;;;5039864;28;20063;-72
2020/12/29 08:47:31;;;;;;;51.03;28.60;;;4.20;99.90;;;;;;5045647;28;20039;-72
2020/12/29 08:49:57;;;;;;;51.38;29.63;;;4.20;99.90;;;;;;5037063;28;20037;-73
2020/12/29 08:52:31;;;;;;;47.40;27.45;;;4.10;99.90;;;;;;5039381;28;20036;-75
2020/12/29 08:54:57;;;;;;;54.13;29.77;;;4.10;99.90;;;;;;5042136;28;20037;-76
2020/12/29 08:57:26;;;;;;;51.63;28.27;;;4.10;99.90;;;;;;5047878;28;20036;-72
2020/12/29 08:59:52;;;;;;;54.35;30.17;;;4.20;99.90;;;;;;5041963;28;20037;-76
2020/12/29 09:02:27;;;;;;;57.22;31.13;;;4.20;99.90;;;;;;5040744;28;20025;-74
2020/12/29 09:04:59;;;;;;;57.95;29.83;;;4.20;99.90;;;;;;5049822;28;20017;-74
2020/12/29 09:07:28;;;;;;;62.50;31.65;;;4.30;99.90;;;;;;5045792;28;20106;-76
2020/12/29 09:09:53;;;;;;;59.60;32.65;;;4.30;99.90;;;;;;5045217;28;20030;-74
2020/12/29 09:12:28;;;;;;;57.88;30.40;;;4.30;99.90;;;;;;5043021;28;20033;-75
2020/12/29 09:14:55;;;;;;;52.60;29.48;;;4.30;99.90;;;;;;5043712;28;20460;-74
2020/12/29 09:17:23;;;;;;;57.70;30.13;;;4.30;99.90;;;;;;5048555;28;20493;-77
2020/12/29 09:20:19;;;;;;;62.63;33.85;;;4.30;99.90;;;;;;5047474;28;20105;-76
2020/12/29 09:23:03;;;;;;;65.93;31.70;;;4.40;99.90;;;;;;5041737;28;20426;-73
2020/12/29 09:25:38;;;;;;;62.20;32.47;;;4.30;99.90;;;;;;5046356;28;20381;-73
2020/12/29 09:28:14;;;;;;;66.43;33.83;;;4.40;99.90;;;;;;5045173;28;20052;-74
2020/12/29 09:30:59;;;;;;;69.78;34.40;;;4.40;99.90;;;;;;5047550;28;20070;-72
2020/12/29 09:33:26;;;;;;;67.32;34.30;;;4.30;99.90;;;;;;5050766;28;20022;-75
2020/12/29 09:35:52;;;;;;;69.88;35.17;;;4.40;99.90;;;;;;5045093;28;20025;-75
2020/12/29 09:38:18;;;;;;;65.88;33.97;;;4.40;99.90;;;;;;5054781;28;20465;-76
2020/12/29 09:40:45;;;;;;;75.70;37.47;;;4.50;99.90;;;;;;5044975;28;20492;-72
2020/12/29 09:43:11;;;;;;;79.50;37.72;;;4.40;99.90;;;;;;5048109;28;20025;-75
2020/12/29 09:45:37;;;;;;;79.57;42.38;;;4.50;99.90;;;;;;5041564;28;20489;-76
2020/12/29 09:48:03;;;;;;;70.75;37.45;;;4.50;99.90;;;;;;5045286;28;20029;-75
2020/12/29 09:50:29;;;;;;;73.50;37.80;;;4.50;99.90;;;;;;5046028;28;20064;-75
2020/12/29 09:52:54;;;;;;;64.75;33.92;;;4.50;99.90;;;;;;5059839;28;20021;-75
2020/12/29 09:55:20;;;;;;;79.53;37.78;;;4.50;99.90;;;;;;5059858;28;20085;-75
2020/12/29 09:57:46;;;;;;;78.78;38.85;;;4.60;99.90;;;;;;5053482;28;20029;-76
2020/12/29 10:00:11;;;;;;;77.97;41.05;;;4.50;99.90;;;;;;5055268;28;20036;-72
2020/12/29 10:02:37;;;;;;;114.65;49.85;;;4.50;99.90;;;;;;5061419;28;20027;-77
2020/12/29 10:05:03;;;;;;;84.75;41.45;;;4.50;99.90;;;;;;5051000;28;20035;-77
2020/12/29 10:07:28;;;;;;;100.85;47.17;;;4.60;99.90;;;;;;5044155;28;20080;-76
2020/12/29 10:09:54;;;;;;;88.63;44.58;;;4.60;99.90;;;;;;5052703;28;20060;-76
2020/12/29 10:12:20;;;;;;;124.53;49.92;;;4.70;99.90;;;;;;5045800;28;20071;-74
2020/12/29 10:14:46;;;;;;;100.50;42.70;;;4.80;99.90;;;;;;5046306;28;20025;-74
2020/12/29 10:17:12;;;;;;;86.00;42.42;;;4.80;99.90;;;;;;5044444;28;20343;-74
2020/12/29 10:19:37;;;;;;;87.60;41.05;;;4.90;99.90;;;;;;5056438;28;20033;-75
2020/12/29 10:22:03;;;;;;;92.00;42.67;;;5.00;99.90;;;;;;5048932;28;20117;-74
2020/12/29 10:24:29;;;;;;;83.70;40.15;;;5.00;99.90;;;;;;5055272;28;20050;-75
2020/12/29 10:26:56;;;;;;;76.75;37.72;;;5.10;99.90;;;;;;5045316;28;20024;-74
2020/12/29 10:29:22;;;;;;;75.78;38.25;;;5.00;99.90;;;;;;5047851;28;20043;-76
2020/12/29 10:31:47;;;;;;;76.20;37.50;;;5.00;99.90;;;;;;5043592;28;20037;-74
2020/12/29 10:34:15;;;;;;;70.03;33.58;;;5.00;99.90;;;;;;5044290;28;20021;-76
2020/12/29 10:36:43;;;;;;;68.45;34.15;;;5.00;99.90;;;;;;5052685;28;20485;-77
2020/12/29 10:39:09;;;;;;;70.13;34.78;;;5.20;99.90;;;;;;5051780;28;20465;-76
2020/12/29 10:41:37;;;;;;;71.95;33.58;;;5.10;99.90;;;;;;5046028;28;20029;-76
2020/12/29 10:44:03;;;;;;;69.00;35.20;;;5.20;99.90;;;;;;5049464;28;20033;-74
2020/12/29 10:46:29;;;;;;;72.80;34.75;;;5.10;99.90;;;;;;5037693;28;20108;-75
2020/12/29 10:48:55;;;;;;;71.80;34.30;;;5.20;99.90;;;;;;5041474;28;20044;-75
2020/12/29 10:51:22;;;;;;;60.20;31.00;;;5.20;99.90;;;;;;5045578;28;20021;-76
2020/12/29 10:53:49;;;;;;;60.00;30.65;;;5.20;99.90;;;;;;5046856;28;20026;-75
2020/12/29 10:56:14;;;;;;;56.28;29.70;;;5.10;99.90;;;;;;5049564;28;20033;-73
2020/12/29 10:58:44;;;;;;;63.58;30.83;;;5.10;99.90;;;;;;5048886;28;20021;-76
2020/12/29 11:01:18;;;;;;;67.38;30.30;;;5.10;99.90;;;;;;5047570;28;20172;-76
2020/12/29 11:03:43;;;;;;;55.58;27.75;;;5.20;99.90;;;;;;5053737;28;20071;-77
2020/12/29 11:06:17;;;;;;;65.38;32.17;;;5.20;99.90;;;;;;5052566;28;20493;-75
2020/12/29 11:08:42;;;;;;;60.85;28.85;;;5.20;99.90;;;;;;5052772;28;20158;-74
2020/12/29 11:11:08;;;;;;;54.22;27.20;;;5.30;99.90;;;;;;5038539;28;20533;-75
2020/12/29 11:13:34;;;;;;;48.03;24.95;;;5.30;99.90;;;;;;5046414;28;20038;-75
2020/12/29 11:16:00;;;;;;;50.22;26.80;;;5.30;99.90;;;;;;5045994;28;20159;-74
2020/12/29 11:18:27;;;;;;;50.88;23.58;;;5.30;99.90;;;;;;5046376;28;20025;-74
2020/12/29 11:20:53;;;;;;;53.40;23.40;;;5.20;99.90;;;;;;5049640;28;20595;-77
2020/12/29 11:23:19;;;;;;;43.72;23.27;;;5.30;99.90;;;;;;5041342;28;21216;-76
2020/12/29 11:25:45;;;;;;;49.03;23.95;;;5.40;99.90;;;;;;5047478;28;20508;-75
2020/12/29 11:28:11;;;;;;;45.67;21.67;;;5.40;99.90;;;;;;5049895;28;20099;-74
2020/12/29 11:30:37;;;;;;;49.35;24.23;;;5.50;99.90;;;;;;5047900;28;20134;-73
2020/12/29 11:33:02;;;;;;;46.35;24.25;;;5.50;99.90;;;;;;5051137;28;20031;-73
2020/12/29 11:35:28;;;;;;;40.80;21.08;;;5.40;99.90;;;;;;5044790;28;20036;-74
2020/12/29 11:37:54;;;;;;;46.00;21.58;;;5.40;99.90;;;;;;5047556;28;20041;-77
2020/12/29 11:40:19;;;;;;;44.70;20.45;;;5.40;99.90;;;;;;5043658;28;20044;-76
2020/12/29 11:42:45;;;;;;;36.55;20.38;;;5.50;99.90;;;;;;5047609;28;20029;-75
2020/12/29 11:45:11;;;;;;;38.95;19.75;;;5.60;99.90;;;;;;5047622;28;20009;-74
2020/12/29 11:47:36;;;;;;;40.60;19.85;;;5.60;99.90;;;;;;5045561;28;20033;-75
2020/12/29 11:50:03;;;;;;;36.58;19.80;;;5.50;99.90;;;;;;5043322;28;20100;-75
2020/12/29 11:52:29;;;;;;;45.65;27.55;;;5.60;99.90;;;;;;5045056;28;20092;-73
2020/12/29 11:54:54;;;;;;;43.50;20.30;;;5.70;99.90;;;;;;5045713;28;20030;-72
2020/12/29 11:57:20;;;;;;;36.97;19.58;;;5.70;99.90;;;;;;5047839;28;20033;-72
2020/12/29 11:59:46;;;;;;;34.22;18.13;;;5.70;99.90;;;;;;5049868;28;20024;-75
2020/12/29 12:02:11;;;;;;;33.22;15.68;;;5.60;99.90;;;;;;5041183;28;20050;-76
2020/12/29 12:04:37;;;;;;;29.27;14.27;;;5.60;99.90;;;;;;5044677;28;20069;-72
2020/12/29 12:07:10;;;;;;;29.85;14.50;;;5.60;99.90;;;;;;5046520;28;20025;-74
2020/12/29 12:09:40;;;;;;;26.08;14.00;;;5.60;99.90;;;;;;5039952;28;20124;-75
2020/12/29 12:12:06;;;;;;;30.85;15.40;;;5.50;99.90;;;;;;5046269;28;20045;-72
2020/12/29 12:14:32;;;;;;;30.17;15.82;;;5.60;99.90;;;;;;5052449;28;20081;-73
2020/12/29 12:16:58;;;;;;;34.10;17.13;;;5.70;99.90;;;;;;5050642;28;20024;-73
2020/12/29 12:19:24;;;;;;;30.15;14.93;;;5.70;99.90;;;;;;5049444;28;20024;-75
2020/12/29 12:21:50;;;;;;;29.52;14.60;;;5.60;99.90;;;;;;5053422;28;20053;-72
2020/12/29 12:24:16;;;;;;;27.55;13.80;;;5.60;99.90;;;;;;5056027;28;20493;-75
2020/12/29 12:26:41;;;;;;;28.58;15.63;;;5.50;99.90;;;;;;5041417;28;20037;-75
2020/12/29 12:29:07;;;;;;;33.05;15.50;;;5.50;99.90;;;;;;5042354;28;20511;-77
2020/12/29 12:31:33;;;;;;;32.15;16.70;;;5.60;99.90;;;;;;5038342;28;20037;-77
2020/12/29 12:33:58;;;;;;;32.00;17.15;;;5.70;99.90;;;;;;5043545;28;20144;-77
2020/12/29 12:36:24;;;;;;;35.15;18.33;;;5.70;99.90;;;;;;5053392;28;20485;-77
2020/12/29 12:38:51;;;;;;;32.10;17.52;;;5.80;99.90;;;;;;5040386;28;20025;-75